Time;durP1;ratioP1;P1;durP2;ratioP2;P2;SDS_P1;SDS_P2;PMS_P1;PMS_P2;Temp;Humidity;BMP_temperature;BMP_pressure;BME280_temperature;BME280_humidity;BME280_pressure;Samples;Min_cycle;Max_cycle;Signal;HPM_P1;HPM_P2
2022/04/18 00:01:11;;;;;;;0.95;0.60;;;;;;;5.03;64.22;94840.53;6240217;23;20004;-87
2022/04/18 00:03:36;;;;;;;1.00;0.60;;;;;;;5.00;63.63;94881.22;6241195;22;20018;-86
2022/04/18 00:06:02;;;;;;;0.98;0.73;;;;;;;1.25;63.04;94301.44;6250303;23;20035;-86
2022/04/18 00:08:28;;;;;;;1.02;0.80;;;;;;;4.90;64.49;94854.00;6257276;23;20008;-86
2022/04/18 00:10:54;;;;;;;0.93;0.77;;;;;;;5.23;64.04;94869.63;6257808;22;20054;-86
2022/04/18 00:13:19;;;;;;;1.23;0.77;;;;;;;4.70;63.92;94781.03;6254514;22;20050;-87
2022/04/18 00:15:45;;;;;;;1.25;0.90;;;;;;;5.15;64.42;94841.16;6256654;22;20004;-86
2022/04/18 00:18:10;;;;;;;1.88;0.90;;;;;;;4.50;62.67;94702.78;6255235;23;20023;-86
2022/04/18 00:20:36;;;;;;;1.27;1.10;;;;;;;4.24;62.82;94721.94;6253833;22;20545;-86
2022/04/18 00:23:01;;;;;;;1.75;0.98;;;;;;;4.96;63.31;94834.63;6254641;22;20059;-86
2022/04/18 00:25:27;;;;;;;1.95;0.80;;;;;;;2.41;62.31;94406.16;6252207;23;20004;-86
2022/04/18 00:27:52;;;;;;;1.27;0.98;;;;;;;4.05;62.36;94634.06;6249245;23;20031;-86
2022/04/18 00:30:18;;;;;;;1.67;1.08;;;;;;;5.45;63.10;94853.81;6242591;23;20023;-86
2022/04/18 00:32:43;;;;;;;1.55;1.10;;;;;;;4.53;63.19;94701.53;6242540;22;20000;-86
2022/04/18 00:35:09;;;;;;;1.98;0.93;;;;;;;5.35;61.69;94843.19;6243329;22;20004;-86
2022/04/18 00:37:36;;;;;;;1.15;0.80;;;;;;;5.18;62.74;94832.78;6242494;23;20012;-86
2022/04/18 00:40:03;;;;;;;1.20;0.98;;;;;;;4.80;61.39;94743.56;6241403;22;20113;-86
2022/04/18 00:42:29;;;;;;;1.13;0.77;;;;;;;4.70;60.58;94756.59;6241193;23;20067;-86
2022/04/18 00:44:54;;;;;;;0.90;0.80;;;;;;;4.13;61.27;94641.50;6240048;23;20083;-86
2022/04/18 00:47:20;;;;;;;1.95;0.95;;;;;;;5.32;60.69;94854.22;6240805;23;20016;-86
2022/04/18 00:49:45;;;;;;;1.13;1.02;;;;;;;5.42;61.88;94855.09;6240371;22;20015;-86
2022/04/18 00:52:11;;;;;;;1.02;0.93;;;;;;;4.48;60.61;94725.91;6239961;22;20008;-87
2022/04/18 00:54:37;;;;;;;1.77;1.17;;;;;;;4.63;62.53;94735.78;6240123;23;20011;-86
2022/04/18 00:57:03;;;;;;;2.03;1.10;;;;;;;4.10;60.15;94619.19;6239704;23;20410;-87
2022/04/18 00:59:31;;;;;;;3.97;1.10;;;;;;;5.81;60.78;94850.44;6239752;23;20008;-86
2022/04/18 01:01:57;;;;;;;5.85;1.10;;;;;;;5.64;60.38;94825.31;6238862;22;20086;-85
2022/04/18 01:04:22;;;;;;;1.50;1.02;;;;;;;5.57;60.71;94795.78;6241327;22;20039;-85
2022/04/18 01:06:48;;;;;;;2.20;0.90;;;;;;;5.54;59.22;94830.47;6240589;23;20012;-85
2022/04/18 01:09:14;;;;;;;1.80;1.13;;;;;;;5.31;59.96;94797.41;6240492;23;20084;-86
2022/04/18 01:11:40;;;;;;;2.55;1.35;;;;;;;5.58;60.07;94831.56;6241797;22;20351;-86
2022/04/18 01:14:06;;;;;;;1.30;1.00;;;;;;;3.16;60.22;94476.25;6241563;22;20016;-86
2022/04/18 01:16:32;;;;;;;5.88;1.25;;;;;;;5.01;60.59;94769.78;6240152;23;20004;-86
2022/04/18 01:18:57;;;;;;;1.45;1.13;;;;;;;5.30;60.31;94803.69;6240055;22;20008;-86
2022/04/18 01:21:23;;;;;;;1.92;1.30;;;;;;;5.07;60.37;94730.41;6239835;22;20103;-86
2022/04/18 01:23:49;;;;;;;1.60;1.30;;;;;;;5.28;59.61;94748.72;6239503;23;20016;-86
2022/04/18 01:28:59;;;;;;;2.78;1.45;;;;;;;5.15;60.08;94722.88;6241144;23;20323;-85
2022/04/18 01:31:26;;;;;;;1.73;1.30;;;;;;;5.33;59.82;94753.25;6239011;23;20008;-85
2022/04/18 01:33:51;;;;;;;3.08;1.00;;;;;;;5.34;61.44;94734.56;6239104;23;20470;-86
2022/04/18 01:36:17;;;;;;;4.63;1.60;;;;;;;5.64;60.22;94786.66;6239986;22;20012;-86
2022/04/18 01:38:42;;;;;;;1.70;1.10;;;;;;;5.35;59.32;94724.84;6239378;22;20004;-85
2022/04/18 01:41:08;;;;;;;1.83;1.10;;;;;;;5.69;60.92;94791.94;6241869;22;20079;-85
2022/04/18 01:43:33;;;;;;;3.95;1.20;;;;;;;5.69;60.31;94755.09;6239291;23;20341;-85
2022/04/18 01:45:59;;;;;;;1.63;1.30;;;;;;;5.52;60.01;94751.81;6239989;23;20065;-85
2022/04/18 01:48:24;;;;;;;1.67;1.20;;;;;;;5.03;59.94;94649.44;6239465;22;20324;-86
2022/04/18 01:50:50;;;;;;;1.70;1.52;;;;;;;5.59;59.95;94746.34;6240171;23;20119;-86
2022/04/18 01:53:15;;;;;;;2.10;1.40;;;;;;;3.47;61.69;94418.69;6240125;22;20004;-86
2022/04/18 01:55:41;;;;;;;3.13;1.83;;;;;;;5.77;59.72;94761.72;6238821;23;20008;-85
2022/04/18 01:58:08;;;;;;;3.90;1.80;;;;;;;5.71;60.25;94731.19;6239793;23;20004;-85
2022/04/18 02:00:34;;;;;;;2.80;1.50;;;;;;;5.52;60.04;94688.69;6239266;23;20058;-84
2022/04/18 02:02:59;;;;;;;3.15;1.02;;;;;;;4.19;58.96;94496.97;6239817;22;20016;-85
2022/04/18 02:05:25;;;;;;;2.38;1.20;;;;;;;5.88;59.84;94758.13;6239467;23;20035;-85
2022/04/18 02:07:51;;;;;;;4.65;1.33;;;;;;;5.26;59.36;94666.72;6239452;22;20411;-85
2022/04/18 02:10:16;;;;;;;1.65;1.10;;;;;;;5.56;58.88;94720.56;6239694;23;20032;-85
2022/04/18 02:12:42;;;;;;;4.57;1.50;;;;;;;5.70;59.59;94750.63;6239959;23;20024;-85
2022/04/18 02:15:08;;;;;;;2.97;1.00;;;;;;;5.95;58.13;94781.63;6239651;23;20392;-85
2022/04/18 02:17:34;;;;;;;1.15;0.88;;;;;;;5.45;58.91;94732.84;6238548;23;20004;-85
2022/04/18 02:19:59;;;;;;;1.70;1.15;;;;;;;5.00;58.43;94676.22;6240300;22;20371;-85
2022/04/18 02:22:24;;;;;;;2.08;1.10;;;;;;;4.12;58.74;94567.22;6239427;23;20154;-85
2022/04/18 02:24:51;;;;;;;1.00;0.80;;;;;;;3.97;60.00;94582.03;6239180;22;20008;-85
2022/04/18 02:27:16;;;;;;;4.68;0.90;;;;;;;5.36;60.15;94771.94;6239712;23;20034;-84
2022/04/18 02:29:43;;;;;;;1.40;1.23;;;;;;;4.94;60.48;94703.50;6241059;22;20046;-85
2022/04/18 02:34:52;;;;;;;3.70;0.90;;;;;;;4.69;59.90;94677.00;6240194;23;20011;-85
2022/04/18 02:37:18;;;;;;;1.40;0.82;;;;;;;4.49;59.92;94658.44;6240112;22;20032;-85
2022/04/18 02:39:43;;;;;;;1.50;0.85;;;;;;;5.06;60.23;94750.66;6242382;22;20034;-85
2022/04/18 02:42:09;;;;;;;1.27;1.00;;;;;;;4.42;60.10;94636.84;6241433;22;20004;-85
2022/04/18 02:44:34;;;;;;;4.88;0.80;;;;;;;4.70;60.53;94693.56;6238901;22;20073;-85
2022/04/18 02:47:00;;;;;;;1.15;0.75;;;;;;;4.17;60.80;94627.66;6241269;22;20006;-85
2022/04/18 02:49:25;;;;;;;1.90;0.80;;;;;;;4.50;61.08;94715.94;6238857;23;20546;-85
2022/04/18 02:51:51;;;;;;;1.85;1.00;;;;;;;5.05;61.36;94776.13;6238713;23;20336;-85
2022/04/18 02:54:16;;;;;;;1.40;0.70;;;;;;;3.77;61.17;94572.91;6239541;23;20104;-85
2022/04/18 02:56:42;;;;;;;1.55;1.00;;;;;;;4.20;61.61;94674.38;6239302;23;20087;-85
2022/04/18 02:59:07;;;;;;;4.57;1.60;;;;;;;3.85;62.02;94650.38;6239143;22;20008;-84
2022/04/18 03:01:33;;;;;;;2.17;1.55;;;;;;;3.56;62.17;94612.25;6239079;23;20039;-85
2022/04/18 03:03:58;;;;;;;2.15;1.27;;;;;;;4.40;62.64;94723.72;6239502;22;20019;-85
2022/04/18 03:06:24;;;;;;;4.10;1.10;;;;;;;4.53;62.99;94746.97;6240226;22;20009;-85
2022/04/18 03:08:49;;;;;;;6.00;1.02;;;;;;;4.40;62.56;94743.91;6240337;22;20000;-85
2022/04/18 03:11:15;;;;;;;2.72;1.40;;;;;;;3.19;62.57;94554.38;6238257;23;20011;-86
2022/04/18 03:13:44;;;;;;;2.60;1.10;;;;;;;3.79;62.60;94602.31;6238531;22;20414;-85
2022/04/18 03:16:11;;;;;;;1.35;1.00;;;;;;;4.68;62.70;94756.03;6238482;23;20959;-86
2022/04/18 03:18:37;;;;;;;1.40;0.98;;;;;;;4.82;62.98;94755.41;6238955;23;20481;-86
2022/04/18 03:21:04;;;;;;;3.40;0.90;;;;;;;1.88;62.80;94289.84;6238691;23;20012;-85
2022/04/18 03:23:29;;;;;;;2.95;0.73;;;;;;;2.01;62.32;94352.25;6239588;23;20077;-86
2022/04/18 03:25:57;;;;;;;2.05;1.00;;;;;;;4.07;62.37;94668.72;6240567;22;20303;-86
2022/04/18 03:28:22;;;;;;;0.95;0.80;;;;;;;4.20;63.37;94670.97;6239215;22;20012;-85
2022/04/18 03:30:48;;;;;;;1.10;0.90;;;;;;;3.77;62.50;94578.16;6241176;23;20099;-85
2022/04/18 03:33:13;;;;;;;1.70;0.90;;;;;;;4.34;62.60;94727.31;6240088;23;20004;-85
2022/04/18 03:39:50;;;;;;;3.75;0.90;;;;;;;4.11;62.98;94690.84;6241482;23;20011;-85
2022/04/18 03:41:08;;;;;;;1.48;1.10;;;;;;;2.04;62.55;94364.84;6242523;23;20018;-85
2022/04/18 03:43:35;;;;;;;1.00;0.90;;;;;;;3.74;62.04;94638.16;6240414;23;20012;-85
2022/04/18 03:46:00;;;;;;;2.50;1.13;;;;;;;4.68;63.50;94761.28;6241232;22;20008;-85
2022/04/18 03:48:26;;;;;;;3.25;1.20;;;;;;;1.02;62.24;94194.50;6239884;22;20012;-84
2022/04/18 03:50:51;;;;;;;3.65;1.30;;;;;;;3.71;62.74;94620.31;6242352;22;20010;-85
2022/04/18 03:53:17;;;;;;;6.57;1.55;;;;;;;4.15;62.69;94699.78;6242048;23;20007;-85
2022/04/18 03:55:42;;;;;;;1.45;1.35;;;;;;;4.24;62.87;94688.63;6241396;22;20035;-85
2022/04/18 03:58:08;;;;;;;4.18;1.52;;;;;;;2.12;62.31;94342.72;6241318;22;20043;-86
2022/04/18 04:00:35;;;;;;;2.70;1.30;;;;;;;3.39;62.19;94579.00;6240247;22;20005;-85
2022/04/18 04:03:01;;;;;;;2.85;1.40;;;;;;;4.35;62.41;94726.25;6240172;23;20020;-85
2022/04/18 04:05:26;;;;;;;5.47;1.58;;;;;;;3.87;62.50;94633.34;6240636;22;20054;-86
2022/04/18 04:07:52;;;;;;;1.98;1.35;;;;;;;4.57;62.75;94771.72;6242534;22;20054;-85
2022/04/18 04:10:17;;;;;;;7.53;2.03;;;;;;;4.62;63.05;94774.38;6243473;22;20008;-85
2022/04/18 04:12:43;;;;;;;2.63;1.80;;;;;;;3.64;62.77;94578.53;6240644;22;20398;-85
2022/04/18 04:15:09;;;;;;;7.10;2.10;;;;;;;2.17;62.47;94382.81;6242432;22;20015;-85
2022/04/18 04:17:35;;;;;;;6.03;1.60;;;;;;;4.98;62.53;94803.66;6242071;23;20077;-85
2022/04/18 04:20:01;;;;;;;5.90;2.22;;;;;;;2.80;61.92;94418.19;6241055;23;20012;-85
2022/04/18 04:22:27;;;;;;;5.97;2.13;;;;;;;1.38;62.00;94196.59;6242142;22;20023;-84
2022/04/18 04:24:52;;;;;;;6.68;2.05;;;;;;;1.76;61.80;94234.22;6238593;23;20020;-83
2022/04/18 04:27:18;;;;;;;6.93;2.80;;;;;;;4.83;62.20;94709.69;6239904;22;20008;-82
2022/04/18 04:29:44;;;;;;;7.53;2.67;;;;;;;5.35;61.68;94770.34;6232582;22;20008;-83
2022/04/18 04:32:09;;;;;;;11.95;2.63;;;;;;;2.64;61.56;94361.44;6232165;22;20841;-81
2022/04/18 04:34:37;;;;;;;7.35;2.08;;;;;;;4.08;61.40;94567.97;6222142;22;20342;-83
2022/04/18 04:37:03;;;;;;;5.07;2.60;;;;;;;2.52;60.14;94319.66;6229052;22;20008;-83
2022/04/18 04:39:29;;;;;;;6.13;2.30;;;;;;;5.31;61.14;94800.03;6232175;23;20299;-84
2022/04/18 04:41:59;;;;;;;2.55;2.00;;;;;;;2.97;60.22;94395.38;6228090;23;20012;-83
2022/04/18 04:44:24;;;;;;;5.13;2.45;;;;;;;2.16;60.85;94323.69;6225452;22;20628;-84
2022/04/18 04:46:51;;;;;;;7.80;2.72;;;;;;;3.12;59.42;94426.19;6228108;22;20019;-85
2022/04/18 04:49:16;;;;;;;8.95;3.05;;;;;;;4.99;60.33;94708.81;6228720;23;20071;-84
2022/04/18 04:51:42;;;;;;;9.77;5.18;;;;;;;3.94;60.12;94591.19;6229727;22;20561;-83
2022/04/18 04:54:08;;;;;;;10.13;4.43;;;;;;;5.40;60.34;94773.03;6230887;22;20000;-84
2022/04/18 04:56:34;;;;;;;10.50;4.43;;;;;;;5.18;60.63;94776.78;6232070;23;20114;-84
2022/04/18 04:58:59;;;;;;;10.05;4.00;;;;;;;4.76;59.70;94674.16;6234012;22;20008;-84
2022/04/18 05:01:25;;;;;;;7.38;3.88;;;;;;;2.68;59.54;94365.16;6227975;22;20012;-83
2022/04/18 05:03:53;;;;;;;8.98;3.53;;;;;;;3.31;59.70;94429.25;6228310;22;20023;-84
2022/04/18 05:06:18;;;;;;;9.70;3.67;;;;;;;0.05;59.42;93922.81;6223089;22;20048;-84
2022/04/18 05:08:44;;;;;;;4.72;3.25;;;;;;;4.74;59.12;94695.44;6231208;23;20020;-83
2022/04/18 05:11:09;;;;;;;5.80;4.00;;;;;;;4.98;58.46;94680.94;6232251;23;20343;-84
2022/04/18 05:13:35;;;;;;;5.88;3.47;;;;;;;5.58;58.78;94758.69;6230689;22;20538;-84
2022/04/18 05:16:01;;;;;;;4.57;3.30;;;;;;;5.72;58.81;94759.84;6223887;22;20117;-84
2022/04/18 05:18:27;;;;;;;7.97;3.30;;;;;;;5.48;57.74;94736.81;6225145;22;20316;-83
2022/04/18 05:20:52;;;;;;;5.68;3.03;;;;;;;4.91;58.74;94661.97;6224890;23;20099;-84
2022/04/18 05:23:20;;;;;;;6.18;3.40;;;;;;;3.30;57.58;94389.16;6226571;22;20119;-85
2022/04/18 05:25:46;;;;;;;13.18;3.50;;;;;;;5.54;58.84;94789.19;6225079;22;20028;-84
2022/04/18 05:28:11;;;;;;;11.05;3.88;;;;;;;5.13;58.35;94682.88;6229284;22;20008;-84
2022/04/18 05:30:41;;;;;;;13.82;3.75;;;;;;;5.30;58.69;94704.59;6230611;22;20109;-83
2022/04/18 05:33:07;;;;;;;6.78;2.95;;;;;;;5.02;57.30;94702.25;6229136;22;20008;-83
2022/04/18 05:35:41;;;;;;;5.22;2.88;;;;;;;0.68;57.92;93992.81;6223258;22;20454;-84
2022/04/18 05:38:07;;;;;;;9.23;3.22;;;;;;;3.27;57.25;94373.13;6226468;23;20058;-84
2022/04/18 05:40:35;;;;;;;10.27;2.58;;;;;;;4.10;57.77;94505.56;6220305;23;20008;-84
2022/04/18 05:43:02;;;;;;;12.82;3.47;;;;;;;5.66;57.20;94731.13;6226360;23;20012;-83
2022/04/18 05:45:28;;;;;;;10.40;3.70;;;;;;;5.80;57.54;94767.25;6199473;23;20070;-84
2022/04/18 05:47:53;;;;;;;7.90;3.05;;;;;;;3.91;57.57;94455.25;6224624;22;20099;-83
2022/04/18 05:50:19;;;;;;;6.05;2.90;;;;;;;3.82;57.09;94427.91;6223753;22;20095;-84
2022/04/18 05:52:47;;;;;;;4.32;2.60;;;;;;;3.89;56.76;94436.38;6222895;22;20348;-84
2022/04/18 05:55:12;;;;;;;6.93;2.35;;;;;;;6.19;56.72;94867.84;6222460;23;20197;-84
2022/04/18 05:57:38;;;;;;;4.18;2.60;;;;;;;4.07;56.42;94527.81;6225248;22;20600;-85
2022/04/18 06:00:14;;;;;;;5.38;2.97;;;;;;;5.70;56.66;94774.31;6230629;23;20186;-84
2022/04/18 06:02:39;;;;;;;3.92;2.85;;;;;;;1.88;57.58;94182.63;6221173;22;20412;-84
2022/04/18 06:05:08;;;;;;;6.80;3.20;;;;;;;5.27;57.62;94689.31;6224393;22;20074;-84
2022/04/18 06:07:39;;;;;;;5.60;3.70;;;;;;;0.51;56.84;93995.44;6219364;23;20446;-82
2022/04/18 06:10:06;;;;;;;7.23;3.30;;;;;;;5.73;57.26;94756.16;6222347;22;20004;-85
2022/04/18 06:12:32;;;;;;;11.52;3.35;;;;;;;3.23;57.01;94325.66;6219915;22;20028;-86
2022/04/18 06:14:57;;;;;;;6.13;3.00;;;;;;;5.37;56.03;94697.28;6223900;23;20012;-86
2022/04/18 06:17:23;;;;;;;4.05;2.53;;;;;;;3.46;56.58;94445.94;6226674;23;20008;-86
2022/04/18 06:19:49;;;;;;;5.90;3.88;;;;;;;3.18;56.53;94367.53;6225480;23;20019;-85
2022/04/18 06:22:16;;;;;;;7.57;5.30;;;;;;;0.47;57.17;93949.19;6223598;23;20077;-84
2022/04/18 06:24:42;;;;;;;9.40;2.70;;;;;;;3.90;57.15;94477.28;6224003;22;20020;-84
2022/04/18 06:27:07;;;;;;;5.38;2.50;;;;;;;5.99;56.95;94791.38;6227521;22;20016;-84
2022/04/18 06:29:33;;;;;;;12.10;3.00;;;;;;;4.28;56.98;94503.34;6225269;23;20040;-83
2022/04/18 06:31:58;;;;;;;4.72;3.53;;;;;;;5.64;56.64;94714.81;6223834;22;20089;-82
2022/04/18 06:34:25;;;;;;;3.33;2.17;;;;;;;4.90;55.64;94586.78;6224670;22;20008;-84
2022/04/18 06:36:51;;;;;;;5.10;2.42;;;;;;;5.86;55.82;94727.84;6219947;22;20098;-84
2022/04/18 06:39:16;;;;;;;3.72;2.67;;;;;;;6.08;56.85;94820.66;6222690;23;20382;-84
2022/04/18 06:41:42;;;;;;;11.40;3.63;;;;;;;6.31;55.88;94815.00;6226455;22;20552;-83
2022/04/18 06:44:07;;;;;;;9.27;3.20;;;;;;;6.16;56.35;94814.91;6221235;23;20012;-83
2022/04/18 06:46:33;;;;;;;6.18;3.28;;;;;;;3.48;57.13;94375.69;6221512;22;20489;-84
2022/04/18 06:48:58;;;;;;;5.82;3.60;;;;;;;6.57;56.46;94815.91;6225081;23;20012;-85
2022/04/18 06:51:24;;;;;;;16.08;3.20;;;;;;;6.27;56.85;94768.34;6222063;23;20115;-85
2022/04/18 06:53:49;;;;;;;5.50;2.63;;;;;;;5.28;56.45;94630.41;6225629;23;20072;-85
2022/04/18 06:58:59;;;;;;;3.63;2.22;;;;;;;6.41;55.05;94820.31;6222080;23;20054;-83
2022/04/18 07:01:25;;;;;;;6.45;2.90;;;;;;;5.65;55.31;94672.47;6221303;23;20008;-84
2022/04/18 07:03:50;;;;;;;6.53;2.67;;;;;;;5.31;54.99;94615.97;6227459;22;20021;-84
2022/04/18 07:06:16;;;;;;;14.63;2.30;;;;;;;6.08;55.65;94784.59;6223945;22;20337;-84
2022/04/18 07:08:41;;;;;;;3.45;2.45;;;;;;;6.40;56.71;94794.25;6226739;23;20027;-84
2022/04/18 07:11:07;;;;;;;4.30;2.92;;;;;;;5.10;57.08;94598.50;6221505;22;20055;-84
2022/04/18 07:13:32;;;;;;;3.15;2.30;;;;;;;6.09;58.30;94785.41;6245621;22;20024;-84
2022/04/18 07:16:01;;;;;;;9.93;2.63;;;;;;;5.81;56.75;94763.59;6227107;22;20684;-84
2022/04/18 07:18:26;;;;;;;5.32;2.53;;;;;;;4.89;57.54;94522.16;6227736;22;20111;-84
2022/04/18 07:20:52;;;;;;;3.67;2.70;;;;;;;4.84;57.09;94587.00;6225318;22;20106;-84
2022/04/18 07:23:17;;;;;;;4.65;2.67;;;;;;;5.14;56.89;94550.41;6231691;22;20016;-85
2022/04/18 07:25:43;;;;;;;7.70;2.42;;;;;;;4.89;56.32;94574.69;6227654;22;20521;-83
2022/04/18 07:28:38;;;;;;;4.25;2.40;;;;;;;3.29;56.84;94311.56;6258071;22;20091;-85
2022/04/18 07:30:59;;;;;;;5.00;2.92;;;;;;;4.40;56.97;94529.44;6231700;22;20039;-84
2022/04/18 07:33:34;;;;;;;4.88;2.72;;;;;;;2.86;57.01;94290.72;6228719;22;20470;-84
2022/04/18 07:36:00;;;;;;;5.70;2.67;;;;;;;1.52;56.61;94088.13;6257631;22;20080;-84
2022/04/18 07:41:09;;;;;;;3.35;2.30;;;;;;;4.43;56.62;94481.66;6263446;22;20052;-84
2022/04/18 07:43:35;;;;;;;5.43;3.17;;;;;;;2.55;55.64;94190.94;6229513;22;20019;-84
2022/04/18 07:46:02;;;;;;;9.45;3.30;;;;;;;6.23;56.51;94791.00;6235313;22;20439;-84
2022/04/18 07:48:37;;;;;;;5.75;2.83;;;;;;;4.54;56.90;94499.06;6234107;22;20011;-88
2022/04/18 07:53:50;;;;;;;4.43;2.60;;;;;;;2.84;56.83;94300.66;6254150;22;20379;-84
2022/04/18 07:56:23;;;;;;;5.68;2.53;;;;;;;2.74;56.38;94358.97;6221938;22;20426;-85
2022/04/18 07:58:51;;;;;;;7.53;2.70;;;;;;;0.66;56.18;93982.59;6230736;22;20086;-82
2022/04/18 08:01:18;;;;;;;9.00;2.10;;;;;;;0.62;56.65;93989.31;6232121;22;20012;-85
2022/04/18 08:03:44;;;;;;;8.10;3.30;;;;;;;3.98;57.60;94524.06;6233868;22;20078;-85
2022/04/18 08:06:10;;;;;;;4.32;2.95;;;;;;;2.71;57.42;94352.38;6232394;22;20533;-84
2022/04/18 08:08:36;;;;;;;14.77;2.67;;;;;;;4.34;57.04;94551.44;6231190;22;20060;-83
2022/04/18 08:11:03;;;;;;;7.97;3.25;;;;;;;3.46;57.00;94400.56;6228740;22;20019;-83
2022/04/18 08:13:28;;;;;;;8.60;2.50;;;;;;;6.03;57.32;94820.59;6229145;22;20153;-84
2022/04/18 08:15:54;;;;;;;3.10;2.33;;;;;;;5.25;57.51;94659.06;6255876;22;20533;-83
2022/04/18 08:18:23;;;;;;;8.80;2.60;;;;;;;3.71;57.16;94382.44;6231708;22;20012;-84
2022/04/18 08:20:52;;;;;;;6.35;2.85;;;;;;;6.54;56.16;94798.78;6210546;22;20004;-83
2022/04/18 08:23:18;;;;;;;5.03;2.20;;;;;;;0.88;55.39;93938.25;6231045;22;20216;-83
2022/04/18 08:25:43;;;;;;;7.03;2.55;;;;;;;4.60;55.69;94534.84;6221795;22;20366;-82
2022/04/18 08:28:16;;;;;;;4.72;2.42;;;;;;;6.66;57.07;94847.84;6226197;22;20417;-83
2022/04/18 08:30:42;;;;;;;2.55;1.90;;;;;;;1.97;55.50;94141.97;6230265;22;20012;-83
2022/04/18 08:33:08;;;;;;;14.13;2.35;;;;;;;6.43;55.67;94809.53;6258065;22;20113;-84
2022/04/18 08:35:33;;;;;;;4.40;2.78;;;;;;;4.09;56.05;94477.72;6234760;22;20065;-83
2022/04/18 08:38:00;;;;;;;5.20;2.53;;;;;;;0.88;56.46;93981.81;6231993;22;20186;-83
2022/04/18 08:40:32;;;;;;;9.20;2.17;;;;;;;5.95;56.30;94773.72;6225961;22;20015;-83
2022/04/18 08:42:58;;;;;;;;;;;;;;;6.41;55.93;94830.84;6228125;22;20462;-83
2022/04/18 08:45:26;;;;;;;5.32;2.40;;;;;;;1.27;56.26;94006.06;6234614;22;19941;-82
2022/04/18 08:53:28;;;;;;;9.75;2.65;;;;;;;6.13;55.00;94724.06;6251860;22;20045;-81
2022/04/18 08:55:59;;;;;;;6.80;3.05;;;;;;;5.73;54.61;94669.34;6256660;22;20004;-81
2022/04/18 08:58:35;;;;;;;2.80;1.90;;;;;;;5.93;54.36;94731.06;6259676;22;20011;-84
2022/04/18 09:01:07;;;;;;;2.97;1.60;;;;;;;5.36;54.74;94716.72;6232521;22;20035;-85
2022/04/18 09:03:36;;;;;;;6.88;2.05;;;;;;;5.65;54.67;94690.88;6229855;22;20015;-84
2022/04/18 09:06:29;;;;;;;9.88;2.30;;;;;;;6.70;54.35;94830.47;6232811;22;20038;-85
2022/04/18 09:09:08;;;;;;;8.95;3.35;;;;;;;4.61;54.71;94502.28;6234173;22;20084;-85
2022/04/18 09:11:38;;;;;;;5.63;2.35;;;;;;;1.97;54.41;94073.19;6231418;22;20100;-84
2022/04/18 09:14:16;;;;;;;2.30;1.60;;;;;;;6.85;54.02;94823.44;6227380;22;20034;-85
2022/04/18 09:16:57;;;;;;;4.70;2.00;;;;;;;5.24;54.22;94545.22;6228962;22;20022;-83
2022/04/18 09:19:46;;;;;;;5.88;2.00;;;;;;;2.28;53.46;94116.91;6230472;22;20094;-84
2022/04/18 09:22:13;;;;;;;1.88;1.05;;;;;;;4.58;52.83;94455.50;6226092;22;20531;-84
2022/04/18 09:24:39;;;;;;;2.70;1.63;;;;;;;3.75;52.69;94378.28;6226648;22;20077;-84
2022/04/18 09:27:15;;;;;;;2.70;1.35;;;;;;;3.17;52.57;94360.72;6220661;23;20424;-83
2022/04/18 09:29:40;;;;;;;4.38;1.90;;;;;;;4.28;53.12;94406.22;6225051;22;20114;-83
2022/04/18 09:32:13;;;;;;;7.90;2.47;;;;;;;5.24;53.05;94497.91;6221013;23;20012;-84
2022/04/18 09:35:01;;;;;;;2.97;1.48;;;;;;;5.57;51.71;94628.22;6227923;23;20000;-82
2022/04/18 09:37:33;;;;;;;6.00;1.23;;;;;;;1.98;50.58;94025.09;6226405;22;20008;-84
2022/04/18 09:40:04;;;;;;;2.83;1.40;;;;;;;5.14;50.67;94476.03;6228776;22;20004;-84
2022/04/18 09:42:30;;;;;;;2.95;1.60;;;;;;;5.55;50.35;94548.00;6228424;22;20004;-85
2022/04/18 09:44:56;;;;;;;4.70;1.92;;;;;;;5.59;51.78;94564.84;6229638;22;20043;-85
2022/04/18 09:47:23;;;;;;;10.32;2.10;;;;;;;6.84;52.31;94726.94;6229510;23;20014;-84
2022/04/18 09:49:49;;;;;;;7.35;1.63;;;;;;;6.75;51.60;94756.69;6226421;23;20070;-84
2022/04/18 09:52:17;;;;;;;4.78;1.60;;;;;;;6.92;52.55;94762.56;6227507;23;20027;-84
2022/04/18 09:54:58;;;;;;;1.20;1.00;;;;;;;6.86;52.51;94735.41;6230910;22;20008;-84
2022/04/18 09:57:29;;;;;;;4.10;1.52;;;;;;;7.17;52.34;94778.41;6228928;23;20305;-85
2022/04/18 09:59:57;;;;;;;2.70;1.15;;;;;;;4.11;51.80;94331.31;6229703;23;20011;-84
2022/04/18 10:02:26;;;;;;;5.43;2.10;;;;;;;5.07;51.90;94452.63;6233477;22;20307;-84
2022/04/18 10:04:52;;;;;;;4.47;1.60;;;;;;;3.78;50.71;94209.16;6227923;23;20774;-85
2022/04/18 10:07:19;;;;;;;2.28;1.02;;;;;;;4.56;50.15;94307.13;6230259;23;20020;-86
2022/04/18 10:09:45;;;;;;;2.75;1.33;;;;;;;1.81;51.21;93925.84;6233202;23;20506;-85
2022/04/18 10:12:15;;;;;;;1.00;0.90;;;;;;;3.46;50.39;94104.38;6231904;23;20046;-84
2022/04/18 10:14:42;;;;;;;3.03;1.40;;;;;;;6.14;50.21;94512.41;6206223;23;20000;-82
2022/04/18 10:17:11;;;;;;;3.60;1.35;;;;;;;7.70;49.68;94755.22;6230463;23;20008;-85
2022/04/18 10:19:43;;;;;;;4.78;1.65;;;;;;;7.85;50.28;94792.19;6226221;22;20477;-83
2022/04/18 10:22:42;;;;;;;9.32;2.03;;;;;;;6.12;50.51;94540.81;6231057;22;20074;-85
2022/04/18 10:25:29;;;;;;;4.15;1.40;;;;;;;7.72;50.32;94785.56;6231288;22;20047;-85
2022/04/18 10:28:17;;;;;;;6.03;1.85;;;;;;;7.40;50.32;94745.44;6232563;22;20346;-83
2022/04/18 10:30:48;;;;;;;9.98;1.90;;;;;;;5.91;50.25;94469.97;6215248;22;20207;-85
2022/04/18 10:33:15;;;;;;;2.60;1.35;;;;;;;4.09;49.68;94215.34;6217212;23;20559;-82
2022/04/18 10:36:01;;;;;;;5.80;1.83;;;;;;;7.20;50.18;94658.41;6221099;22;20045;-83
2022/04/18 10:38:30;;;;;;;3.60;1.98;;;;;;;2.67;49.74;93991.84;6224978;22;20118;-84
2022/04/18 10:41:14;;;;;;;3.70;1.80;;;;;;;4.42;49.92;94303.41;6227970;23;20147;-82
2022/04/18 10:43:58;;;;;;;7.75;1.88;;;;;;;7.98;49.63;94777.63;6224026;22;20073;-83
2022/04/18 10:46:23;;;;;;;3.38;2.15;;;;;;;2.54;50.13;93972.13;6222676;23;20020;-84
2022/04/18 10:49:00;;;;;;;4.88;1.92;;;;;;;2.92;51.15;94094.09;6225997;23;20595;-83
2022/04/18 10:51:37;;;;;;;2.72;1.50;;;;;;;6.17;52.39;94642.75;6228251;22;20700;-83
2022/04/18 10:54:11;;;;;;;4.88;1.67;;;;;;;7.23;51.75;94774.75;6226982;22;20015;-83
2022/04/18 10:56:58;;;;;;;4.70;1.80;;;;;;;5.38;51.10;94525.31;6229752;22;20066;-82
2022/04/18 10:59:31;;;;;;;5.00;2.35;;;;;;;7.16;51.26;94768.94;6230042;22;20007;-83
2022/04/18 11:01:59;;;;;;;4.10;2.00;;;;;;;7.39;50.84;94766.84;6227245;22;20541;-82
2022/04/18 11:04:30;;;;;;;3.33;2.05;;;;;;;7.63;50.63;94771.31;6225125;23;20030;-84
2022/04/18 11:07:05;;;;;;;5.53;2.58;;;;;;;7.37;52.20;94714.34;6224393;22;20046;-83
2022/04/18 11:09:33;;;;;;;7.43;2.33;;;;;;;7.78;49.57;94765.25;6227061;23;20074;-82
2022/04/18 11:12:12;;;;;;;3.08;1.95;;;;;;;7.52;49.09;94703.78;6228566;23;20547;-83
2022/04/18 11:14:37;;;;;;;3.42;1.50;;;;;;;8.01;47.65;94761.28;6227580;23;20355;-83
2022/04/18 11:17:04;;;;;;;3.28;1.88;;;;;;;7.72;47.81;94761.03;6228477;22;20362;-83
2022/04/18 11:19:30;;;;;;;3.20;2.00;;;;;;;7.40;49.29;94681.38;6224878;23;20456;-82
2022/04/18 11:21:57;;;;;;;5.65;1.60;;;;;;;8.03;47.83;94753.84;6225881;22;20018;-83
2022/04/18 11:24:35;;;;;;;3.13;2.38;;;;;;;8.01;49.86;94753.34;6226437;22;20024;-84
2022/04/18 11:27:02;;;;;;;3.72;2.05;;;;;;;7.24;48.00;94648.94;6230581;22;20012;-83
2022/04/18 11:29:32;;;;;;;5.63;1.88;;;;;;;6.91;48.32;94642.34;6226320;22;20016;-82
2022/04/18 11:31:58;;;;;;;4.28;2.17;;;;;;;7.51;48.70;94693.47;6216685;22;20039;-82
2022/04/18 11:34:27;;;;;;;4.47;2.40;;;;;;;6.87;49.41;94625.44;6224040;23;20008;-83
2022/04/18 11:36:55;;;;;;;5.85;2.55;;;;;;;7.27;50.20;94686.09;6223704;23;20012;-83
2022/04/18 11:39:20;;;;;;;3.38;2.13;;;;;;;7.91;49.07;94753.34;6225265;22;20074;-83
2022/04/18 11:41:46;;;;;;;5.18;2.00;;;;;;;7.07;50.34;94677.41;6227413;22;20455;-82
2022/04/18 11:44:12;;;;;;;2.17;1.58;;;;;;;7.05;50.50;94639.97;6230249;22;20016;-84
2022/04/18 11:46:38;;;;;;;7.97;3.70;;;;;;;7.18;49.47;94619.13;6228435;22;20332;-83
2022/04/18 11:49:03;;;;;;;6.57;3.05;;;;;;;7.88;49.51;94709.00;6225345;23;20386;-83
2022/04/18 11:51:39;;;;;;;3.20;2.33;;;;;;;8.16;49.79;94755.97;6226876;22;20008;-83
2022/04/18 11:54:05;;;;;;;5.70;2.60;;;;;;;6.74;50.38;94534.53;6228694;23;20055;-83
2022/04/18 11:56:31;;;;;;;8.27;2.97;;;;;;;7.89;50.81;94729.06;6228054;22;20095;-84
2022/04/18 11:59:07;;;;;;;3.10;2.10;;;;;;;8.06;50.04;94751.47;6225678;23;20016;-82
2022/04/18 12:07:01;;;;;;;3.35;2.20;;;;;;;8.17;48.34;94688.03;6226947;23;20027;-82
2022/04/18 12:12:58;;;;;;;2.85;2.00;;;;;;;2.89;47.08;93921.81;6223645;22;20027;-84
2022/04/18 12:19:15;;;;;;;;;;;;;;;;;;;;;
2022/04/18 12:21:44;;;;;;;2.72;1.80;;;;;;;4.96;49.66;94259.94;6223814;23;20016;-83